M I D A S
Marine Information and Data Acquisition System
Tripno 1447 of the Zeeleeuw from 2008-03-28 07:28:51 to 2008-03-28 13:09:42
Back to CruiseResearch ActivitiesStationsMapUnderway DataData graphs

EquipmentUnitsComment
TimeDGPSUTC
LatitudeDGPSDM.mWGS84
LongitudeDGPSDM.mWGS84
HeadingGyrodeg 
SOGDGPSknotsSpeed over ground
COGDGPSdegCourse over ground
DepthEcho soundermeters200 kHz
Missing or incorrect values are displayed as -999
Navigation data collected by the RV Zeeleeuw from 2008-03-28 06:49:31 to 2008-03-28 13:15:27
Time Latitude Longitude Heading SOG COG Depth
2008-03-28 06:50:36 51°13.666 2°55.955 126.3 -999 105 -999
2008-03-28 06:51:36 51°13.665 2°55.955 126.4 -999 306 -999
2008-03-28 06:52:37 51°13.665 2°55.954 126.6 -999 81 -999
2008-03-28 06:53:36 51°13.665 2°55.954 126.6 -999 338 -999
2008-03-28 06:54:36 51°13.666 2°55.954 126.5 -999 34 -999
2008-03-28 06:55:36 51°13.666 2°55.954 126.9 -999 174 -999
2008-03-28 06:56:37 51°13.665 2°55.953 126.2 -999 306 -999
2008-03-28 06:57:37 51°13.665 2°55.953 125.6 -999 33 -999
2008-03-28 06:58:36 51°13.665 2°55.953 125.5 -999 332 -999
2008-03-28 06:59:37 51°13.665 2°55.953 125.7 -999 298 -999
2008-03-28 07:00:36 51°13.665 2°55.953 126.7 -999 104 -999
2008-03-28 07:01:36 51°13.665 2°55.953 127.1 -999 333 -999
2008-03-28 07:02:37 51°13.665 2°55.953 126.4 -999 39 -999
2008-03-28 07:03:36 51°13.665 2°55.953 126.1 -999 226 -999
2008-03-28 07:04:37 51°13.666 2°55.953 126.4 -999 40 -999
2008-03-28 07:05:36 51°13.666 2°55.953 126.1 -999 178 -999
2008-03-28 07:06:36 51°13.665 2°55.953 125.9 -999 186 -999
2008-03-28 07:07:37 51°13.665 2°55.953 126.2 -999 65 -999
2008-03-28 07:08:36 51°13.665 2°55.953 126.1 -999 257 -999
2008-03-28 07:09:36 51°13.665 2°55.954 126.2 -999 131 -999
2008-03-28 07:10:36 51°13.666 2°55.954 126.5 -999 10 -999
2008-03-28 07:11:36 51°13.666 2°55.953 126.6 -999 151 -999
2008-03-28 07:12:37 51°13.666 2°55.953 126.4 -999 259 -999
2008-03-28 07:13:36 51°13.666 2°55.953 126 -999 153 -999
2008-03-28 07:14:37 51°13.666 2°55.953 125.9 -999 247 -999
2008-03-28 07:15:37 51°13.666 2°55.953 126.1 -999 248 -999
2008-03-28 07:16:37 51°13.667 2°55.954 126.2 -999 76 -999
2008-03-28 07:17:37 51°13.667 2°55.954 126.2 -999 261 -999
2008-03-28 07:18:37 51°13.666 2°55.954 126.1 -999 85 -999
2008-03-28 07:19:37 51°13.667 2°55.955 126.2 -999 238 -999
2008-03-28 07:20:37 51°13.667 2°55.956 125.9 -999 34 -999
2008-03-28 07:21:37 51°13.666 2°55.956 126 -999 287 -999
2008-03-28 07:22:37 51°13.666 2°55.955 125.8 -999 89 6.9
2008-03-28 07:23:37 51°13.665 2°55.954 126 -999 144 6.9
2008-03-28 07:24:37 51°13.666 2°55.954 125.6 -999 150 6.9
2008-03-28 07:25:37 51°13.666 2°55.954 125.6 -999 116 -999
2008-03-28 07:26:37 51°13.666 2°55.953 125.7 -999 30 -999
2008-03-28 07:27:37 51°13.667 2°55.953 125.8 -999 29 -999
2008-03-28 07:28:37 51°13.667 2°55.953 125.9 -999 134 6.8
2008-03-28 07:29:37 51°13.667 2°55.953 126.1 -999 94 -999
2008-03-28 07:30:37 51°13.666 2°55.952 126.5 -999 22 6.8
2008-03-28 07:31:37 51°13.666 2°55.953 126.6 -999 282 -999
2008-03-28 07:32:37 51°13.665 2°55.953 126.5 -999 347 6.8
2008-03-28 07:33:37 51°13.666 2°55.953 126.5 -999 214 6.8
2008-03-28 07:34:37 51°13.665 2°55.953 126.6 -999 231 6.9
2008-03-28 07:35:37 51°13.666 2°55.953 125 0.1 189 6.8
2008-03-28 07:36:37 51°13.664 2°55.953 113.7 0.1 286 6.9
2008-03-28 07:37:37 51°13.672 2°55.931 110.9 1.8 298 -999
2008-03-28 07:38:37 51°13.687 2°55.857 94.9 3.3 280 -999
2008-03-28 07:39:37 51°13.689 2°55.777 74.9 2.6 265 -999
2008-03-28 07:40:37 51°13.684 2°55.727 48.7 1.1 256 13.4
2008-03-28 07:41:37 51°13.709 2°55.714 350.7 4.3 340 14.3
2008-03-28 07:42:37 51°13.811 2°55.636 336.9 8.1 335 10.8
2008-03-28 07:43:36 51°13.94 2°55.541 336.7 8.8 335 10.7
2008-03-28 07:44:35 51°14.071 2°55.445 336.1 8.9 336 10.7
2008-03-28 07:45:36 51°14.213 2°55.326 327.5 9.9 325 10.6
2008-03-28 07:46:36 51°14.327 2°55.126 306.3 10.9 307 10.8
2008-03-28 07:47:34 51°14.431 2°54.863 301.1 12.7 295 10.7
2008-03-28 07:48:34 51°14.46 2°54.521 268.6 13.3 267 10.5
2008-03-28 07:49:34 51°14.408 2°54.181 249.4 13.2 250 9.5
2008-03-28 07:50:33 51°14.335 2°53.856 251.9 13.2 253 9.7
2008-03-28 07:51:33 51°14.26 2°53.528 249.3 13.2 251 9.9
2008-03-28 07:52:33 51°14.184 2°53.2 249.2 13.2 252 10.2
2008-03-28 07:53:34 51°14.105 2°52.868 243.5 13.1 245 10.8
2008-03-28 07:54:34 51°14.012 2°52.554 241.7 13 244 10.7
2008-03-28 07:55:33 51°13.908 2°52.259 239.1 12.7 240 10.7
2008-03-28 07:56:33 51°13.826 2°52.101 216.4 5 224 11
2008-03-28 07:57:34 51°13.779 2°52.029 216.5 3.5 227 11
2008-03-28 07:58:33 51°13.746 2°51.962 219.8 3.1 234 11
2008-03-28 07:59:33 51°13.717 2°51.9 216.8 2.8 233 11.1
2008-03-28 08:00:33 51°13.687 2°51.84 216.4 3 230 11.1
2008-03-28 08:01:34 51°13.649 2°51.77 216.2 3.9 227 11.1
2008-03-28 08:02:34 51°13.598 2°51.691 213.3 4.6 223 11.1
2008-03-28 08:03:34 51°13.54 2°51.605 218.4 4.9 227 11
2008-03-28 08:04:33 51°13.504 2°51.52 234 3.2 245 11.1
2008-03-28 08:05:33 51°13.489 2°51.459 234.1 2 252 11.1
2008-03-28 08:06:33 51°13.483 2°51.414 240.7 1.6 265 11.1
2008-03-28 08:07:33 51°13.483 2°51.376 249.4 1.4 277 11.1
2008-03-28 08:08:33 51°13.485 2°51.342 253.9 1.3 277 11.2
2008-03-28 08:09:33 51°13.487 2°51.31 255.5 1.2 277 11.2
2008-03-28 08:10:34 51°13.49 2°51.279 258.5 1.2 285 11.2
2008-03-28 08:11:34 51°13.494 2°51.248 261.2 1.5 279 11.2
2008-03-28 08:12:34 51°13.488 2°51.195 230 2.6 245 11.2
2008-03-28 08:13:34 51°13.445 2°51.076 237.5 6.9 242 11.1
2008-03-28 08:14:33 51°13.376 2°50.878 237.2 9.7 240 11.1
2008-03-28 08:15:33 51°13.292 2°50.649 236.5 10.1 240 11.3
2008-03-28 08:16:34 51°13.205 2°50.413 236.5 10.1 240 11.3
2008-03-28 08:17:33 51°13.115 2°50.173 236.2 11.1 240 11.4
2008-03-28 08:18:33 51°13.019 2°49.919 236.1 11.2 240 11.4
2008-03-28 08:19:33 51°12.931 2°49.657 239.1 11.2 241 11.5
2008-03-28 08:20:34 51°12.842 2°49.389 239 11.2 241 11.6
2008-03-28 08:21:34 51°12.753 2°49.126 239.9 11.3 243 11.7
2008-03-28 08:22:34 51°12.667 2°48.862 238.7 11.2 242 11.8
2008-03-28 08:23:33 51°12.583 2°48.602 239.3 11.3 242 11.9
2008-03-28 08:24:34 51°12.495 2°48.335 239.1 11.2 242 12.1
2008-03-28 08:25:33 51°12.408 2°48.077 239.6 11.2 243 12.2
2008-03-28 08:26:34 51°12.323 2°47.805 239.9 11.3 243 12.3
2008-03-28 08:27:34 51°12.241 2°47.535 243 11.5 245 12.4
2008-03-28 08:28:33 51°12.166 2°47.261 244.5 11.4 247 12.5
2008-03-28 08:29:34 51°12.089 2°46.979 243.9 11.4 247 12.5
2008-03-28 08:30:33 51°12.015 2°46.704 243.7 11.5 246 12.6
2008-03-28 08:31:33 51°11.937 2°46.427 242.7 11.4 246 12.6
2008-03-28 08:32:33 51°11.859 2°46.149 243 11.5 246 12.6
2008-03-28 08:33:33 51°11.787 2°45.868 246.7 11.5 249 12.6
2008-03-28 08:34:34 51°11.712 2°45.583 244.8 11.4 247 12.5
2008-03-28 08:35:34 51°11.641 2°45.302 245.2 11.4 248 12.4
2008-03-28 08:36:34 51°11.57 2°45.021 244.8 11.4 248 12.4
2008-03-28 08:37:34 51°11.5 2°44.741 244.8 11.4 248 12.3
2008-03-28 08:38:34 51°11.429 2°44.461 244.7 11.4 248 12.3
2008-03-28 08:39:33 51°11.361 2°44.186 244.7 11.4 248 12.2
2008-03-28 08:40:34 51°11.289 2°43.903 245.4 11.3 247 12.1
2008-03-28 08:41:34 51°11.231 2°43.616 250.9 11.4 254 12.1
2008-03-28 08:42:34 51°11.178 2°43.326 250.3 11.4 254 12.1
2008-03-28 08:43:34 51°11.124 2°43.038 250.4 11.4 254 12.1
2008-03-28 08:44:33 51°11.073 2°42.753 251.3 11.4 255 12
2008-03-28 08:45:34 51°11.019 2°42.459 250.1 11.4 253 12
2008-03-28 08:46:33 51°10.967 2°42.173 251.6 11.4 255 12
2008-03-28 08:47:33 51°10.915 2°41.884 250.2 11.3 254 11.9
2008-03-28 08:48:33 51°10.861 2°41.595 249.6 11.4 254 11.9
2008-03-28 08:49:34 51°10.808 2°41.301 250.2 11.4 254 11.8
2008-03-28 08:50:34 51°10.76 2°41.015 251.8 10.3 256 11.9
2008-03-28 08:51:34 51°10.725 2°40.866 229.2 4 243 12.1
2008-03-28 08:52:34 51°10.698 2°40.798 204.3 2.6 226 12.2
2008-03-28 08:53:34 51°10.622 2°40.75 189.7 7.2 200 12.2
2008-03-28 08:54:34 51°10.508 2°40.625 212 8.8 219 12.1
2008-03-28 08:55:34 51°10.394 2°40.471 216.7 9.2 224 11.8
2008-03-28 08:56:34 51°10.283 2°40.299 217.7 9.4 224 11.6
2008-03-28 08:57:33 51°10.203 2°40.162 216.9 5.4 227 11.4
2008-03-28 08:58:34 51°10.155 2°40.08 208.1 3.3 229 11.1
2008-03-28 08:59:33 51°10.128 2°40.026 208 2.3 235 11
2008-03-28 09:00:33 51°10.114 2°39.977 216.3 1.8 255 11
2008-03-28 09:01:34 51°10.111 2°39.933 232.1 1.6 273 11.1
2008-03-28 09:02:33 51°10.116 2°39.893 254.5 1.6 288 11.2
2008-03-28 09:03:34 51°10.126 2°39.856 275.5 1.5 294 11.3
2008-03-28 09:04:34 51°10.138 2°39.822 287.2 1.5 298 11.6
2008-03-28 09:05:34 51°10.15 2°39.789 287.1 1.4 302 11.7
2008-03-28 09:06:34 51°10.162 2°39.75 286.7 2.6 293 12
2008-03-28 09:07:34 51°10.211 2°39.685 358.5 4.3 352 12.4
2008-03-28 09:08:34 51°10.286 2°39.744 40.4 7.8 34 12.7
2008-03-28 09:09:33 51°10.398 2°39.906 49.3 9.8 45 12.7
2008-03-28 09:10:34 51°10.515 2°40.098 49.8 10 46 12.7
2008-03-28 09:11:33 51°10.632 2°40.281 48.6 10 45 12.7
2008-03-28 09:12:34 51°10.753 2°40.473 49.5 10.1 46 12.5
2008-03-28 09:13:33 51°10.869 2°40.662 49.3 10.2 45 12.2
2008-03-28 09:14:34 51°10.989 2°40.858 49.3 10.1 46 11.9
2008-03-28 09:15:34 51°11.105 2°41.052 50.8 10.1 47 11.7
2008-03-28 09:16:34 51°11.221 2°41.248 50.7 10.1 48 11.3
2008-03-28 09:17:34 51°11.338 2°41.442 48.6 10.1 46 11.2
2008-03-28 09:18:34 51°11.451 2°41.639 50.1 10 47 10.6
2008-03-28 09:19:34 51°11.566 2°41.833 49.3 10.1 47 10.1
2008-03-28 09:20:34 51°11.683 2°42.026 48.2 10.1 46 10.5
2008-03-28 09:21:34 51°11.792 2°42.231 53.9 10.1 52 10.8
2008-03-28 09:22:34 51°11.899 2°42.437 51.7 10.1 48 10.7
2008-03-28 09:23:34 51°12.007 2°42.642 52.9 10.1 51 10.7
2008-03-28 09:24:34 51°12.115 2°42.846 52.1 10.1 49 10.9
2008-03-28 09:25:33 51°12.22 2°43.047 52.4 10 51 11
2008-03-28 09:26:34 51°12.327 2°43.251 53.1 9.8 52 10.8
2008-03-28 09:27:33 51°12.427 2°43.449 52.8 9.8 51 11.4
2008-03-28 09:28:34 51°12.533 2°43.651 51.3 9.7 49 11.3
2008-03-28 09:29:33 51°12.635 2°43.845 51.7 9.8 48 12.1
2008-03-28 09:30:34 51°12.743 2°44.044 52.6 9.8 50 12.2
2008-03-28 09:31:34 51°12.847 2°44.241 52.1 9.7 49 11.6
2008-03-28 09:32:34 51°12.95 2°44.439 52.2 9.7 48 11.4
2008-03-28 09:33:34 51°13.061 2°44.626 50.7 9.7 47 11.3
2008-03-28 09:34:34 51°13.172 2°44.813 50.6 9.7 47 11.1
2008-03-28 09:35:34 51°13.288 2°44.99 45.3 9.7 42 10.6
2008-03-28 09:36:34 51°13.409 2°45.162 46.5 9.7 43 9.3
2008-03-28 09:37:34 51°13.525 2°45.339 47.9 9.6 44 8.2
2008-03-28 09:38:33 51°13.644 2°45.505 44.7 9.7 41 5.5
2008-03-28 09:39:34 51°13.765 2°45.683 45.1 9.7 41 7.7
2008-03-28 09:40:34 51°13.887 2°45.856 46.6 9.8 43 8.2
2008-03-28 09:41:34 51°14.008 2°46.031 45.3 9.8 41 9.1
2008-03-28 09:42:34 51°14.132 2°46.203 46.3 9.8 41 9.8
2008-03-28 09:43:34 51°14.248 2°46.385 52.8 9.8 50 10.3
2008-03-28 09:44:34 51°14.354 2°46.582 54.1 9.8 49 10.8
2008-03-28 09:45:34 51°14.464 2°46.773 53.4 9.8 51 11.4
2008-03-28 09:46:34 51°14.568 2°46.972 54.7 9.7 51 11.7
2008-03-28 09:47:34 51°14.672 2°47.17 54.4 9.7 50 11.9
2008-03-28 09:48:34 51°14.775 2°47.367 55 9.7 51 12.1
2008-03-28 09:49:34 51°14.88 2°47.564 54.3 9.8 50 12.1
2008-03-28 09:50:34 51°14.985 2°47.764 55.3 9.9 52 12
2008-03-28 09:51:34 51°15.091 2°47.963 54.3 9.9 50 11.7
2008-03-28 09:52:34 51°15.194 2°48.165 55.1 9.8 52 10.9
2008-03-28 09:53:34 51°15.298 2°48.367 54.7 9.8 51 10.5
2008-03-28 09:54:34 51°15.397 2°48.575 58.6 9.8 55 10.2
2008-03-28 09:55:34 51°15.489 2°48.789 59 9.8 56 10
2008-03-28 09:56:34 51°15.583 2°49.001 58 9.8 55 10
2008-03-28 09:57:34 51°15.676 2°49.215 57.7 9.8 54 9.8
2008-03-28 09:58:34 51°15.769 2°49.428 58.3 9.8 55 9.8
2008-03-28 09:59:34 51°15.861 2°49.642 59 9.8 57 9.6
2008-03-28 10:00:34 51°15.956 2°49.854 57.6 9.8 54 9.4
2008-03-28 10:01:33 51°16.046 2°50.064 58 9.7 57 9.2
2008-03-28 10:02:34 51°16.137 2°50.283 57.7 9.7 56 9
2008-03-28 10:03:34 51°16.23 2°50.493 57.8 9.7 55 8
2008-03-28 10:04:34 51°16.319 2°50.704 57.8 9.7 57 8.9
2008-03-28 10:05:34 51°16.405 2°50.923 59.4 9.7 58 9.9
2008-03-28 10:06:34 51°16.506 2°51.126 51.8 9.8 51 10.9
2008-03-28 10:07:34 51°16.606 2°51.329 53.7 9.8 51 10.4
2008-03-28 10:08:34 51°16.707 2°51.531 52.6 9.7 51 10.8
2008-03-28 10:09:34 51°16.811 2°51.727 47.1 9.6 46 9.9
2008-03-28 10:10:34 51°16.93 2°51.904 41.4 9.7 38 9.1
2008-03-28 10:11:34 51°17.058 2°52.06 39.7 9.7 37 9.5
2008-03-28 10:12:34 51°17.185 2°52.217 36.5 9.6 30 9.4
2008-03-28 10:13:34 51°17.331 2°52.323 24.9 9.6 21 9.4
2008-03-28 10:14:34 51°17.487 2°52.391 17.3 9.8 15 9.4
2008-03-28 10:15:34 51°17.644 2°52.457 18.3 9.7 14 9.3
2008-03-28 10:16:34 51°17.801 2°52.521 18.6 9.7 16 9.3
2008-03-28 10:17:34 51°17.961 2°52.591 18.3 10.4 16 9.5
2008-03-28 10:18:34 51°18.111 2°52.754 48.5 11.5 51 9.6
2008-03-28 10:19:34 51°18.191 2°53.032 69.3 11.7 70 9.7
2008-03-28 10:20:34 51°18.267 2°53.316 63 11.7 62 9.6
2008-03-28 10:21:34 51°18.354 2°53.589 63.5 11.5 64 9.7
2008-03-28 10:22:34 51°18.438 2°53.866 63.3 11.6 64 9.8
2008-03-28 10:23:34 51°18.529 2°54.139 63.8 11.6 67 9.7
2008-03-28 10:24:34 51°18.602 2°54.425 66.1 11.5 67 9.7
2008-03-28 10:25:34 51°18.674 2°54.71 66.2 11.7 66 9.7
2008-03-28 10:26:34 51°18.747 2°54.996 68.8 11.6 69 9.8
2008-03-28 10:27:34 51°18.819 2°55.28 66 11.4 66 9.8
2008-03-28 10:28:34 51°18.892 2°55.559 68.1 11.4 69 9.3
2008-03-28 10:29:34 51°18.96 2°55.844 68.3 11.4 68 9.2
2008-03-28 10:30:34 51°19.03 2°56.127 67.2 11.5 68 9.3
2008-03-28 10:31:34 51°19.108 2°56.403 65.3 11.4 65 9.4
2008-03-28 10:32:34 51°19.179 2°56.683 65.8 11.3 65 9
2008-03-28 10:33:34 51°19.251 2°56.961 69.2 11.5 68 9.1
2008-03-28 10:34:34 51°19.325 2°57.238 65.6 11.4 69 9
2008-03-28 10:35:34 51°19.391 2°57.521 68.7 11.2 70 8.9
2008-03-28 10:36:34 51°19.457 2°57.799 68.1 11.2 68 8.5
2008-03-28 10:37:34 51°19.532 2°58.071 65.2 11.3 66 8.7
2008-03-28 10:38:34 51°19.605 2°58.345 65.7 11.2 67 8.5
2008-03-28 10:39:34 51°19.67 2°58.624 69.6 11.2 71 8.5
2008-03-28 10:40:34 51°19.736 2°58.902 68.3 11.2 68 8.2
2008-03-28 10:41:34 51°19.809 2°59.176 64.8 11.2 65 8.1
2008-03-28 10:42:34 51°19.882 2°59.451 69.1 11.2 72 8.1
2008-03-28 10:43:34 51°19.955 2°59.727 65.4 11.3 66 8.2
2008-03-28 10:44:34 51°20.025 3°0.002 66.9 11.2 65 8.2
2008-03-28 10:45:34 51°20.105 3°0.27 65 11.2 64 8.2
2008-03-28 10:46:34 51°20.179 3°0.541 67.9 11.2 69 8.2
2008-03-28 10:47:34 51°20.252 3°0.811 66.7 11.1 67 8.3
2008-03-28 10:48:34 51°20.318 3°1.087 69.7 11.1 68 8.3
2008-03-28 10:49:34 51°20.41 3°1.348 59.7 11.4 57 8.4
2008-03-28 10:50:34 51°20.514 3°1.597 57.5 11.3 56 8.4
2008-03-28 10:51:34 51°20.613 3°1.854 59.4 11.4 58 8.6
2008-03-28 10:52:34 51°20.712 3°2.11 60.4 11.3 59 8.8
2008-03-28 10:53:34 51°20.81 3°2.368 63 11.4 61 8.9
2008-03-28 10:54:34 51°20.905 3°2.632 59.8 11.6 56 9.1
2008-03-28 10:55:34 51°21.005 3°2.893 61.2 11.5 60 9.2
2008-03-28 10:56:34 51°21.094 3°3.161 65 11.5 64 9.4
2008-03-28 10:57:34 51°21.178 3°3.436 64.5 11.5 65 9.5
2008-03-28 10:58:34 51°21.241 3°3.726 71.5 11.5 72 9.7
2008-03-28 10:59:34 51°21.301 3°4.016 70.4 11.5 71 9.6
2008-03-28 11:00:34 51°21.363 3°4.302 71.7 11.3 73 9.7
2008-03-28 11:01:34 51°21.428 3°4.586 69.6 11.4 68 9.6
2008-03-28 11:02:34 51°21.489 3°4.868 71.6 11.1 72 9.7
2008-03-28 11:03:34 51°21.552 3°5.148 69.9 11.2 70 9.9
2008-03-28 11:04:34 51°21.617 3°5.428 68.7 11.2 70 9.8
2008-03-28 11:05:34 51°21.687 3°5.708 69.2 11.3 70 9.8
2008-03-28 11:06:34 51°21.75 3°5.993 71.8 11.4 70 9.9
2008-03-28 11:07:34 51°21.813 3°6.278 71.3 11.4 71 10.3
2008-03-28 11:08:34 51°21.88 3°6.564 68.7 11.5 66 10.5
2008-03-28 11:09:34 51°21.949 3°6.852 70.1 11.7 68 10.7
2008-03-28 11:10:34 51°22.017 3°7.141 69.9 11.5 67 10.9
2008-03-28 11:11:34 51°22.085 3°7.426 70.1 11.4 69 11.1
2008-03-28 11:12:34 51°22.155 3°7.709 68.9 11.5 67 11.3
2008-03-28 11:13:34 51°22.22 3°7.995 70.8 11.5 69 11.3
2008-03-28 11:14:34 51°22.25 3°8.297 84.9 11.6 87 11.5
2008-03-28 11:15:34 51°22.263 3°8.605 85.1 11.7 86 11.5
2008-03-28 11:16:34 51°22.277 3°8.914 84.5 11.7 85 11.7
2008-03-28 11:17:34 51°22.294 3°9.219 85.5 11.5 85 11.9
2008-03-28 11:18:34 51°22.313 3°9.522 82.9 11.5 84 12.2
2008-03-28 11:19:34 51°22.331 3°9.828 84.6 11.5 86 12.5
2008-03-28 11:20:34 51°22.349 3°10.131 84.1 11.6 86 13
2008-03-28 11:21:34 51°22.368 3°10.433 83.9 10.9 82 17.7
2008-03-28 11:22:34 51°22.392 3°10.704 84.7 8.7 82 15.9
2008-03-28 11:23:34 51°22.406 3°10.879 84.7 5.6 80 15.2
2008-03-28 11:24:34 51°22.42 3°11.009 85.6 4.6 82 14.8
2008-03-28 11:25:34 51°22.419 3°11.164 95.3 6.6 94 14.9
2008-03-28 11:26:34 51°22.416 3°11.35 96.6 7.1 94 14.8
2008-03-28 11:27:34 51°22.412 3°11.543 92.6 7.3 92 14.7
2008-03-28 11:28:34 51°22.446 3°11.674 37.6 4.7 23 14.6
2008-03-28 11:29:34 51°22.516 3°11.631 316.7 4.8 309 14.2
2008-03-28 11:30:34 51°22.539 3°11.509 263.7 4.1 274 14.4
2008-03-28 11:31:34 51°22.528 3°11.421 228.9 2.8 252 14.5
2008-03-28 11:32:34 51°22.515 3°11.362 212.6 1.9 249 14.7
2008-03-28 11:33:34 51°22.515 3°11.322 224.9 1.5 288 14.7
2008-03-28 11:34:34 51°22.526 3°11.29 247.6 1.4 309 14.6
2008-03-28 11:35:34 51°22.54 3°11.266 267.7 1.1 316 14.7
2008-03-28 11:36:34 51°22.553 3°11.247 280 1.1 318 14.6
2008-03-28 11:37:34 51°22.568 3°11.229 284.3 1 321 14.5
2008-03-28 11:38:34 51°22.581 3°11.211 282.2 1 318 14.3
2008-03-28 11:39:34 51°22.593 3°11.192 277.2 1 318 14.2
2008-03-28 11:40:34 51°22.601 3°11.147 250.7 2.7 268 14.2
2008-03-28 11:41:34 51°22.581 3°11.038 240.5 5.9 250 14.3
2008-03-28 11:42:34 51°22.537 3°10.864 240.9 8.1 246 14.6
2008-03-28 11:43:34 51°22.476 3°10.642 243.8 9.5 249 15.3
2008-03-28 11:44:34 51°22.425 3°10.401 249.1 9.7 255 17.8
2008-03-28 11:45:34 51°22.379 3°10.152 252.3 10 255 13.2
2008-03-28 11:46:34 51°22.337 3°9.89 253.8 10.2 255 12.8
2008-03-28 11:47:34 51°22.294 3°9.626 253.7 10.3 255 12.6
2008-03-28 11:48:33 51°22.249 3°9.366 253.2 10.2 255 12.2
2008-03-28 11:49:33 51°22.205 3°9.1 253.4 10.4 255 12
2008-03-28 11:50:33 51°22.16 3°8.832 253 10.5 255 11.5
2008-03-28 11:51:33 51°22.115 3°8.562 253 10.5 256 11.4
2008-03-28 11:52:33 51°22.071 3°8.293 252.9 10.5 255 11.3
2008-03-28 11:53:33 51°22.028 3°8.023 253.2 10.5 255 11.1
2008-03-28 11:54:33 51°21.983 3°7.754 253.2 10.5 255 10.9
2008-03-28 11:55:33 51°21.938 3°7.483 253.2 10.5 255 11
2008-03-28 11:56:33 51°21.893 3°7.212 252.6 10.5 254 10.8
2008-03-28 11:57:33 51°21.847 3°6.945 250.3 10.4 253 10.6
2008-03-28 11:58:33 51°21.796 3°6.679 250.4 10.4 253 10.7
2008-03-28 11:59:33 51°21.746 3°6.415 249.8 10.4 252 10.5
2008-03-28 12:00:33 51°21.696 3°6.151 249.9 10.4 252 10.4
2008-03-28 12:01:33 51°21.644 3°5.887 250.3 10.5 252 10.2
2008-03-28 12:02:33 51°21.592 3°5.621 250.7 10.5 253 10
2008-03-28 12:03:33 51°21.539 3°5.356 250.3 10.5 252 10
2008-03-28 12:04:33 51°21.486 3°5.09 250.3 10.4 252 10
2008-03-28 12:05:33 51°21.433 3°4.827 250.2 10.4 251 10
2008-03-28 12:06:33 51°21.374 3°4.562 248.2 11.2 250 10
2008-03-28 12:07:33 51°21.305 3°4.26 247.8 12.7 250 9.9
2008-03-28 12:08:33 51°21.226 3°3.939 247 13 248 9.9
2008-03-28 12:09:33 51°21.148 3°3.617 247.8 13 249 9.8
2008-03-28 12:10:33 51°21.071 3°3.296 247.7 12.9 249 9.7
2008-03-28 12:11:33 51°20.99 3°2.978 245.5 12.9 247 9.7
2008-03-28 12:12:33 51°20.904 3°2.665 244.8 12.8 247 9.6
2008-03-28 12:13:33 51°20.821 3°2.354 245.2 12.7 247 9.5
2008-03-28 12:14:33 51°20.74 3°2.043 246.3 12.7 248 9.5
2008-03-28 12:15:33 51°20.661 3°1.729 246.4 12.7 248 9.5
2008-03-28 12:16:33 51°20.582 3°1.416 246.3 12.7 248 9.4
2008-03-28 12:17:33 51°20.501 3°1.102 245.7 12.8 247 9.6
2008-03-28 12:18:33 51°20.422 3°0.786 246.6 12.7 247 9.5
2008-03-28 12:19:33 51°20.342 3°0.472 246.1 12.8 248 9.4
2008-03-28 12:20:33 51°20.261 3°0.158 246.1 12.8 248 9.4
2008-03-28 12:21:33 51°20.181 2°59.844 246.1 12.7 248 9.5
2008-03-28 12:22:33 51°20.102 2°59.528 246.6 12.8 247 9.3
2008-03-28 12:23:33 51°20.022 2°59.211 246.7 12.9 249 9.4
2008-03-28 12:24:33 51°19.942 2°58.894 247.1 12.9 249 9.5
2008-03-28 12:25:33 51°19.862 2°58.578 246.3 12.7 248 9.8
2008-03-28 12:26:33 51°19.783 2°58.265 246.2 12.7 247 9.8
2008-03-28 12:27:33 51°19.704 2°57.952 246.8 12.6 248 10.1
2008-03-28 12:28:33 51°19.624 2°57.64 246.2 12.8 247 9.9
2008-03-28 12:29:33 51°19.544 2°57.327 246.6 12.8 248 10.2
2008-03-28 12:30:33 51°19.464 2°57.014 246 12.6 248 10.2
2008-03-28 12:31:33 51°19.384 2°56.706 245.8 12.7 247 10.4
2008-03-28 12:32:33 51°19.303 2°56.396 246 12.7 247 10.6
2008-03-28 12:33:33 51°19.22 2°56.085 246.1 12.7 247 10.5
2008-03-28 12:34:33 51°19.14 2°55.773 246.3 12.6 248 10.5
2008-03-28 12:35:33 51°19.059 2°55.464 246.5 12.6 247 10.7
2008-03-28 12:36:33 51°18.979 2°55.155 246.4 12.5 248 10.9
2008-03-28 12:37:33 51°18.9 2°54.848 245.8 12.5 247 10.9
2008-03-28 12:38:33 51°18.821 2°54.54 246 12.6 247 11.1
2008-03-28 12:39:33 51°18.741 2°54.231 245.9 12.7 247 11.1
2008-03-28 12:40:33 51°18.661 2°53.922 245.8 12.6 247 11
2008-03-28 12:41:33 51°18.582 2°53.614 246.5 12.5 248 11.1
2008-03-28 12:42:33 51°18.504 2°53.308 246.2 12.5 248 11.3
2008-03-28 12:43:33 51°18.413 2°53.01 239.2 12.5 239 11
2008-03-28 12:44:33 51°18.284 2°52.756 220.9 12.4 222 11
2008-03-28 12:45:33 51°18.118 2°52.569 208.4 12.2 210 10.7
2008-03-28 12:46:33 51°17.932 2°52.452 191.1 12.2 193 10.6
2008-03-28 12:47:33 51°17.733 2°52.397 187.8 12.1 190 10.3
2008-03-28 12:48:33 51°17.533 2°52.359 184 12 186 10.3
2008-03-28 12:49:33 51°17.334 2°52.337 181.7 12 183 10.3
2008-03-28 12:50:33 51°17.136 2°52.346 167.7 12 169 10.4
2008-03-28 12:51:33 51°16.942 2°52.418 166.9 12.1 167 9.4
2008-03-28 12:52:33 51°16.757 2°52.534 156 12 156 10.1
2008-03-28 12:53:33 51°16.577 2°52.676 153 12 153 11.7
2008-03-28 12:54:34 51°16.398 2°52.821 153.8 11.9 154 11.9
2008-03-28 12:55:33 51°16.225 2°52.963 154.4 11.9 154 11.8
2008-03-28 12:56:34 51°16.043 2°53.1 153.9 11.9 154 11.7
2008-03-28 12:57:33 51°15.87 2°53.234 154.7 11.7 154 11.5
2008-03-28 12:58:34 51°15.689 2°53.371 153.5 11.9 155 11.1
2008-03-28 12:59:34 51°15.51 2°53.507 154.9 11.8 155 10.6
2008-03-28 13:00:33 51°15.338 2°53.645 153.1 11.9 153 10.1
2008-03-28 13:01:33 51°15.164 2°53.795 148.1 11.9 147 9.6
2008-03-28 13:02:33 51°15.003 2°53.978 144.7 11.8 145 9.7
2008-03-28 13:03:33 51°14.842 2°54.161 145.1 11.8 145 9.9
2008-03-28 13:04:33 51°14.692 2°54.361 134.8 11.8 131 10.5
2008-03-28 13:05:33 51°14.573 2°54.613 126.6 11.9 125 10.4
2008-03-28 13:06:33 51°14.457 2°54.875 125 12.1 123 10.8
2008-03-28 13:07:33 51°14.333 2°55.131 130.9 12.4 130 11.1
2008-03-28 13:08:35 51°14.196 2°55.347 141.4 9.6 143 -999
2008-03-28 13:09:37 51°14.059 2°55.469 152.9 9 154 -999
2008-03-28 13:10:37 51°13.929 2°55.565 156 7.9 157 10.8
2008-03-28 13:11:35 51°13.821 2°55.642 155.1 6.9 155 10.7
2008-03-28 13:12:34 51°13.751 2°55.719 137.1 4.5 136 10.7
2008-03-28 13:13:37 51°13.704 2°55.816 128.2 4.4 126 13
2008-03-28 13:14:37 51°13.674 2°55.912 113.3 3.8 109 -999